Time;durP1;ratioP1;P1;durP2;ratioP2;P2;SDS_P1;SDS_P2;PMS_P1;PMS_P2;Temp;Humidity;BMP_temperature;BMP_pressure;BME280_temperature;BME280_humidity;BME280_pressure;Samples;Min_cycle;Max_cycle;Signal;HPM_P1;HPM_P2
2023/12/25 00:01:16;;;;;;;1.20;1.10;;;9.80;83.90;;;;;;4950533;28;20578;-82
2023/12/25 00:03:46;;;;;;;1.47;0.80;;;9.80;83.70;;;;;;4956933;28;20198;-81
2023/12/25 00:06:19;;;;;;;0.40;0.40;;;9.80;83.60;;;;;;4953376;28;20217;-81
2023/12/25 00:08:51;;;;;;;1.43;0.70;;;9.70;83.60;;;;;;4948363;28;20216;-83
2023/12/25 00:11:21;;;;;;;1.20;1.10;;;9.80;83.60;;;;;;4949143;28;20673;-81
2023/12/25 00:13:52;;;;;;;0.53;0.53;;;9.70;83.40;;;;;;4953355;28;20221;-82
2023/12/25 00:16:20;;;;;;;0.67;0.67;;;9.70;83.40;;;;;;4947360;28;20218;-82
2023/12/25 00:18:50;;;;;;;0.97;0.97;;;9.70;83.40;;;;;;4958090;28;20899;-82
2023/12/25 00:21:19;;;;;;;0.43;0.43;;;9.70;83.40;;;;;;4952744;28;20210;-82
2023/12/25 00:23:48;;;;;;;1.17;1.07;;;9.60;83.40;;;;;;4953763;28;20273;-83
2023/12/25 00:26:17;;;;;;;0.90;0.90;;;9.60;83.50;;;;;;4951597;28;20629;-82
2023/12/25 00:28:46;;;;;;;0.60;0.60;;;9.50;83.40;;;;;;4948375;28;20203;-83
2023/12/25 00:31:15;;;;;;;1.30;1.20;;;9.60;83.70;;;;;;4944582;28;20203;-82
2023/12/25 00:33:43;;;;;;;0.50;0.50;;;9.50;83.70;;;;;;4951911;28;20213;-83
2023/12/25 00:36:14;;;;;;;1.30;1.00;;;9.50;83.80;;;;;;4948169;28;20225;-81
2023/12/25 00:38:43;;;;;;;0.70;0.70;;;9.50;83.80;;;;;;4950133;28;20290;-83
2023/12/25 00:41:12;;;;;;;1.00;0.80;;;9.50;83.80;;;;;;4947346;28;20294;-82
2023/12/25 00:43:40;;;;;;;0.73;0.73;;;9.40;83.90;;;;;;4951075;28;20207;-82
2023/12/25 00:46:09;;;;;;;0.40;0.40;;;9.40;84.70;;;;;;4952109;28;20187;-83
2023/12/25 00:48:37;;;;;;;0.83;0.83;;;9.30;84.00;;;;;;4953530;28;20745;-83
2023/12/25 00:51:07;;;;;;;0.73;0.73;;;9.30;84.00;;;;;;4955536;28;20229;-82
2023/12/25 00:53:37;;;;;;;0.43;0.43;;;9.30;84.30;;;;;;4952957;28;20658;-83
2023/12/25 00:56:06;;;;;;;0.63;0.63;;;9.20;84.50;;;;;;4952155;28;20199;-83
2023/12/25 00:58:34;;;;;;;1.23;1.07;;;9.10;84.80;;;;;;4952901;28;20210;-82
2023/12/25 01:01:03;;;;;;;0.80;0.70;;;9.10;85.00;;;;;;4952527;28;20632;-84
2023/12/25 01:03:32;;;;;;;0.87;0.87;;;9.10;85.20;;;;;;4952196;28;20230;-82
2023/12/25 01:06:01;;;;;;;1.03;0.93;;;9.00;85.30;;;;;;4941255;28;20202;-81
2023/12/25 01:08:29;;;;;;;0.50;0.50;;;9.10;85.40;;;;;;4949589;28;20205;-81
2023/12/25 01:11:02;;;;;;;0.30;0.30;;;9.10;85.30;;;;;;4951416;28;20218;-81
2023/12/25 01:13:32;;;;;;;0.50;0.50;;;9.10;85.50;;;;;;4944878;28;20210;-83
2023/12/25 01:16:00;;;;;;;0.60;0.60;;;9.10;85.40;;;;;;4962774;28;20210;-82
2023/12/25 01:18:31;;;;;;;0.50;0.50;;;9.10;85.50;;;;;;4952491;28;20201;-80
2023/12/25 01:21:00;;;;;;;0.60;0.60;;;9.10;85.50;;;;;;4949467;28;20226;-81
2023/12/25 01:23:29;;;;;;;1.13;1.03;;;9.20;85.50;;;;;;4953888;28;20237;-82
2023/12/25 01:25:59;;;;;;;1.30;1.10;;;9.10;85.60;;;;;;4947426;28;20237;-81
2023/12/25 01:28:28;;;;;;;0.57;0.57;;;9.10;85.80;;;;;;4948055;28;20198;-81
2023/12/25 01:30:57;;;;;;;0.50;0.50;;;9.10;85.90;;;;;;4947979;28;20233;-82
2023/12/25 01:33:27;;;;;;;5.63;0.90;;;9.10;85.80;;;;;;4951930;28;20202;-81
2023/12/25 01:35:56;;;;;;;0.83;0.80;;;9.10;86.00;;;;;;4949735;28;20211;-83
2023/12/25 01:38:25;;;;;;;0.60;0.60;;;9.10;85.80;;;;;;4955115;28;20198;-83
2023/12/25 01:40:53;;;;;;;0.50;0.50;;;9.10;85.90;;;;;;4950865;28;20199;-82
2023/12/25 01:43:30;;;;;;;0.40;0.40;;;9.10;85.90;;;;;;4952033;28;20245;-82
2023/12/25 01:45:59;;;;;;;0.67;0.67;;;9.00;86.10;;;;;;4950225;28;20229;-81
2023/12/25 01:48:27;;;;;;;0.57;0.57;;;9.00;86.10;;;;;;4950906;28;20226;-81
2023/12/25 01:51:00;;;;;;;0.60;0.60;;;9.00;86.10;;;;;;4950350;28;20223;-82
2023/12/25 01:53:29;;;;;;;0.67;0.63;;;9.00;86.10;;;;;;4951700;28;20221;-81
2023/12/25 01:55:59;;;;;;;0.40;0.40;;;9.10;86.20;;;;;;4954626;28;20207;-81
2023/12/25 01:58:29;;;;;;;3.03;2.10;;;9.00;86.10;;;;;;4952315;28;20198;-83
2023/12/25 02:00:58;;;;;;;1.77;0.70;;;9.00;86.30;;;;;;4949541;28;20229;-83
2023/12/25 02:03:26;;;;;;;1.30;0.70;;;9.00;86.40;;;;;;4948375;28;20289;-82
2023/12/25 02:05:55;;;;;;;0.40;0.40;;;9.00;86.50;;;;;;4949193;28;20186;-82
2023/12/25 02:08:25;;;;;;;0.33;0.33;;;9.00;86.60;;;;;;4951532;28;20354;-82
2023/12/25 02:10:53;;;;;;;0.57;0.50;;;9.00;86.50;;;;;;4950389;28;20234;-83
2023/12/25 02:13:22;;;;;;;0.40;0.40;;;8.90;86.40;;;;;;4948280;28;20255;-84
2023/12/25 02:15:52;;;;;;;0.60;0.60;;;9.00;86.50;;;;;;4945105;28;20607;-82
2023/12/25 02:18:21;;;;;;;2.00;1.63;;;8.90;86.40;;;;;;4948826;28;20202;-81
2023/12/25 02:20:50;;;;;;;0.57;0.57;;;9.00;86.40;;;;;;4947838;28;20258;-81
2023/12/25 02:23:21;;;;;;;2.70;1.50;;;9.00;86.40;;;;;;4952413;28;20398;-83
2023/12/25 02:25:55;;;;;;;4.37;0.93;;;9.00;86.40;;;;;;4951846;28;20213;-83
2023/12/25 02:28:25;;;;;;;0.57;0.57;;;9.00;86.40;;;;;;4951203;28;20285;-81
2023/12/25 02:30:53;;;;;;;1.60;1.17;;;9.00;86.40;;;;;;4949189;28;20230;-81
2023/12/25 02:33:22;;;;;;;0.93;0.93;;;9.10;86.20;;;;;;4952716;28;20203;-83
2023/12/25 02:35:51;;;;;;;0.60;0.60;;;9.20;86.30;;;;;;4947939;28;20237;-87
2023/12/25 02:38:20;;;;;;;0.80;0.80;;;9.10;86.10;;;;;;4954398;28;20261;-84
2023/12/25 02:40:49;;;;;;;0.93;0.93;;;9.10;86.10;;;;;;4947419;28;20230;-83
2023/12/25 02:43:19;;;;;;;0.60;0.60;;;9.20;86.10;;;;;;4947777;28;20212;-83
2023/12/25 02:45:47;;;;;;;0.50;0.50;;;9.20;86.00;;;;;;4946365;28;20202;-85
2023/12/25 02:48:16;;;;;;;1.07;1.07;;;9.30;86.00;;;;;;4952653;28;20199;-84
2023/12/25 02:50:45;;;;;;;0.40;0.40;;;9.30;86.00;;;;;;4951484;28;20324;-83
2023/12/25 02:53:14;;;;;;;0.40;0.40;;;9.20;85.80;;;;;;4951983;28;20262;-86
2023/12/25 02:55:42;;;;;;;0.73;0.73;;;9.20;85.90;;;;;;4949930;28;20623;-84
2023/12/25 02:58:12;;;;;;;0.60;0.60;;;9.20;85.90;;;;;;4955464;28;20332;-82
2023/12/25 03:00:41;;;;;;;0.97;0.87;;;9.20;85.80;;;;;;4949266;28;20342;-81
2023/12/25 03:03:10;;;;;;;0.50;0.50;;;9.20;85.90;;;;;;4944944;28;20210;-83
2023/12/25 03:05:40;;;;;;;1.63;1.43;;;9.20;85.90;;;;;;4948891;28;20207;-82
2023/12/25 03:08:09;;;;;;;1.07;0.87;;;9.20;86.60;;;;;;4947555;28;20225;-83
2023/12/25 03:10:38;;;;;;;3.50;1.27;;;9.20;85.70;;;;;;4951578;28;20833;-83
2023/12/25 03:13:06;;;;;;;0.90;0.90;;;9.20;85.80;;;;;;4951364;28;20289;-82
2023/12/25 03:15:35;;;;;;;0.70;0.70;;;9.20;85.80;;;;;;4951663;28;20194;-83
2023/12/25 03:18:05;;;;;;;4.10;0.97;;;9.20;85.90;;;;;;4952140;28;20207;-82
2023/12/25 03:20:35;;;;;;;0.70;0.70;;;9.10;85.80;;;;;;4944857;28;20628;-84
2023/12/25 03:23:03;;;;;;;0.70;0.70;;;9.20;85.90;;;;;;4951176;28;20213;-83
2023/12/25 03:25:33;;;;;;;1.70;0.97;;;9.10;86.00;;;;;;4950497;28;20203;-83
2023/12/25 03:28:02;;;;;;;1.23;1.13;;;9.10;86.10;;;;;;4945904;28;20230;-83
2023/12/25 03:30:30;;;;;;;0.60;0.60;;;9.10;86.20;;;;;;4954987;28;20202;-83
2023/12/25 03:32:59;;;;;;;0.50;0.50;;;9.10;86.20;;;;;;4944968;28;20299;-84
2023/12/25 03:35:29;;;;;;;0.50;0.50;;;9.00;86.30;;;;;;4950338;28;20286;-82
2023/12/25 03:37:58;;;;;;;3.00;0.93;;;9.00;86.50;;;;;;4954521;28;20281;-83
2023/12/25 03:40:27;;;;;;;0.80;0.80;;;9.00;86.80;;;;;;4948323;28;20230;-84
2023/12/25 03:42:58;;;;;;;3.67;1.27;;;8.90;87.00;;;;;;4952071;28;20221;-84
2023/12/25 03:45:27;;;;;;;0.67;0.67;;;8.90;87.20;;;;;;4948765;28;21715;-84
2023/12/25 03:47:58;;;;;;;0.73;0.73;;;8.90;87.20;;;;;;4951954;28;20216;-84
2023/12/25 03:50:29;;;;;;;2.23;0.67;;;8.90;87.20;;;;;;4956861;28;20202;-84
2023/12/25 03:52:57;;;;;;;0.67;0.67;;;8.90;87.30;;;;;;4951886;28;20237;-85
2023/12/25 03:55:26;;;;;;;0.97;0.90;;;8.80;87.40;;;;;;4953117;28;20203;-83
2023/12/25 03:57:54;;;;;;;1.03;0.87;;;8.80;87.50;;;;;;4958278;28;20428;-82
2023/12/25 04:00:23;;;;;;;1.37;1.07;;;8.90;87.60;;;;;;4954653;28;20294;-83
2023/12/25 04:02:52;;;;;;;0.70;0.70;;;8.80;87.60;;;;;;4955283;28;20686;-85
2023/12/25 04:05:21;;;;;;;0.93;0.93;;;8.80;87.70;;;;;;4953500;28;20666;-85
2023/12/25 04:07:51;;;;;;;0.50;0.50;;;8.80;87.70;;;;;;4950668;28;20703;-84
2023/12/25 04:10:20;;;;;;;1.13;1.13;;;8.90;87.70;;;;;;4954828;28;20670;-83
2023/12/25 04:12:49;;;;;;;0.77;0.77;;;8.80;87.70;;;;;;4953519;28;20236;-86
2023/12/25 04:15:18;;;;;;;0.80;0.80;;;8.80;87.80;;;;;;4955541;28;20285;-85
2023/12/25 04:17:46;;;;;;;1.13;0.93;;;8.90;87.90;;;;;;4959584;28;20294;-84
2023/12/25 04:20:15;;;;;;;1.93;1.03;;;8.90;87.90;;;;;;4955166;28;20216;-87
2023/12/25 04:22:44;;;;;;;1.37;1.27;;;8.90;87.90;;;;;;4956083;28;20238;-84
2023/12/25 04:25:14;;;;;;;1.17;1.17;;;8.90;87.90;;;;;;4951758;28;20677;-84
2023/12/25 04:27:47;;;;;;;0.50;0.50;;;8.90;88.00;;;;;;4954223;28;20226;-83
2023/12/25 04:30:15;;;;;;;1.47;1.30;;;8.80;88.00;;;;;;4956420;28;20202;-84
2023/12/25 04:32:44;;;;;;;1.13;1.07;;;8.80;88.10;;;;;;4952023;28;20276;-82
2023/12/25 04:35:13;;;;;;;3.33;1.43;;;8.80;88.30;;;;;;4950417;28;20812;-86
2023/12/25 04:37:42;;;;;;;0.43;0.43;;;8.80;88.30;;;;;;4956235;28;20672;-85
2023/12/25 04:40:13;;;;;;;1.23;0.90;;;8.80;88.30;;;;;;4948620;28;20677;-85
2023/12/25 04:42:43;;;;;;;0.80;0.77;;;8.80;88.30;;;;;;4950726;28;20195;-84
2023/12/25 04:45:14;;;;;;;0.67;0.67;;;8.80;88.30;;;;;;4960228;28;20288;-84
2023/12/25 04:47:43;;;;;;;1.33;1.23;;;8.80;88.30;;;;;;4952086;28;20217;-84
2023/12/25 04:50:12;;;;;;;1.23;1.13;;;8.90;88.30;;;;;;4957873;28;20215;-83
2023/12/25 04:52:40;;;;;;;0.93;0.93;;;8.90;88.30;;;;;;4970827;28;20238;-85
2023/12/25 04:55:09;;;;;;;0.93;0.93;;;8.90;88.30;;;;;;4953872;28;20187;-87
2023/12/25 04:57:39;;;;;;;4.27;1.00;;;8.90;88.30;;;;;;4953307;28;20238;-85
2023/12/25 05:00:09;;;;;;;1.33;1.23;;;8.90;88.30;;;;;;4956269;28;20288;-86
2023/12/25 05:02:37;;;;;;;1.30;1.20;;;8.90;88.20;;;;;;4961470;28;20285;-87
2023/12/25 05:05:06;;;;;;;1.70;1.10;;;9.00;88.10;;;;;;4962680;28;20208;-85
2023/12/25 05:07:35;;;;;;;0.67;0.67;;;9.00;88.20;;;;;;4957876;28;20567;-88
2023/12/25 05:10:04;;;;;;;0.50;0.50;;;9.10;88.00;;;;;;4953632;28;20309;-86
2023/12/25 05:12:32;;;;;;;0.50;0.50;;;9.10;87.80;;;;;;4957578;28;20250;-87
2023/12/25 05:15:03;;;;;;;0.60;0.60;;;9.10;87.80;;;;;;4950096;28;20198;-86
2023/12/25 05:17:31;;;;;;;1.13;0.97;;;9.10;87.70;;;;;;4958370;28;20206;-87
2023/12/25 05:20:00;;;;;;;1.23;1.13;;;9.20;87.50;;;;;;4961104;28;20211;-87
2023/12/25 05:22:29;;;;;;;1.60;1.03;;;9.20;87.50;;;;;;4954054;28;20190;-88
2023/12/25 05:24:58;;;;;;;0.70;0.70;;;9.20;87.40;;;;;;4952889;28;20222;-87
2023/12/25 05:27:27;;;;;;;2.43;1.60;;;9.30;87.30;;;;;;4955358;28;20685;-86
2023/12/25 05:29:56;;;;;;;4.53;1.33;;;9.30;87.20;;;;;;4957111;28;20743;-89
2023/12/25 05:32:26;;;;;;;0.90;0.90;;;9.30;87.00;;;;;;4958448;28;20309;-87
2023/12/25 05:34:55;;;;;;;1.17;1.07;;;9.40;86.90;;;;;;4959140;28;20203;-85
2023/12/25 05:37:24;;;;;;;1.90;1.17;;;9.40;86.80;;;;;;4958676;28;20203;-86
2023/12/25 05:39:55;;;;;;;1.43;1.37;;;9.40;86.70;;;;;;4952032;28;20206;-87
2023/12/25 05:42:24;;;;;;;1.27;1.17;;;9.40;86.60;;;;;;4955197;28;20277;-83
2023/12/25 05:44:53;;;;;;;1.47;1.37;;;9.40;86.60;;;;;;4947740;28;20206;-83
2023/12/25 05:47:21;;;;;;;0.70;0.70;;;9.40;86.50;;;;;;4953509;28;20672;-83
2023/12/25 05:49:54;;;;;;;1.40;0.80;;;9.40;86.50;;;;;;4952087;28;20259;-82
2023/12/25 05:52:26;;;;;;;2.33;1.80;;;9.40;86.60;;;;;;4950010;28;20226;-81
2023/12/25 05:54:55;;;;;;;0.90;0.90;;;9.40;86.60;;;;;;4949168;28;20234;-82
2023/12/25 05:57:31;;;;;;;1.73;1.60;;;9.40;86.70;;;;;;4946921;28;20218;-82
2023/12/25 06:00:04;;;;;;;1.33;1.23;;;9.30;86.70;;;;;;4952248;28;20206;-81
2023/12/25 06:02:38;;;;;;;4.00;1.33;;;9.30;86.80;;;;;;4944255;28;20720;-84
2023/12/25 06:05:09;;;;;;;1.30;1.20;;;9.30;86.90;;;;;;4952343;28;20206;-85
2023/12/25 06:07:38;;;;;;;7.37;2.37;;;9.30;86.90;;;;;;4949480;28;20207;-86
2023/12/25 06:10:07;;;;;;;1.25;1.15;;;9.40;87.10;;;;;;4943829;28;21263;-81
2023/12/25 06:12:39;;;;;;;0.60;0.60;;;9.40;87.20;;;;;;4950361;28;20245;-87
2023/12/25 06:15:09;;;;;;;1.50;1.17;;;9.40;87.30;;;;;;4947327;28;20198;-86
2023/12/25 06:17:37;;;;;;;0.57;0.57;;;9.40;87.40;;;;;;4950885;28;20221;-82
2023/12/25 06:20:09;;;;;;;0.63;0.63;;;9.40;87.40;;;;;;4951640;28;20229;-90
2023/12/25 06:22:46;;;;;;;1.90;0.77;;;9.50;87.50;;;;;;4953890;28;20254;-87
2023/12/25 06:25:15;;;;;;;0.83;0.83;;;9.50;87.50;;;;;;4952692;28;21001;-86
2023/12/25 06:27:44;;;;;;;0.77;0.77;;;9.50;87.60;;;;;;4952372;28;20735;-83
2023/12/25 06:30:25;;;;;;;0.87;0.87;;;9.50;87.50;;;;;;4948553;28;20577;-85
2023/12/25 06:32:54;;;;;;;0.73;0.73;;;9.60;87.70;;;;;;4949612;28;20318;-81
2023/12/25 06:35:25;;;;;;;1.40;1.30;;;9.60;87.70;;;;;;4946490;28;20249;-85
2023/12/25 06:37:53;;;;;;;0.50;0.50;;;9.60;87.80;;;;;;4954295;28;20198;-82
2023/12/25 06:40:22;;;;;;;1.47;1.37;;;9.60;87.70;;;;;;4949935;28;20210;-82
2023/12/25 06:42:51;;;;;;;1.80;1.70;;;9.60;87.80;;;;;;4949326;28;20199;-84
2023/12/25 06:45:19;;;;;;;1.33;1.23;;;9.70;87.70;;;;;;4952985;28;20645;-83
2023/12/25 06:47:48;;;;;;;5.40;1.37;;;9.80;87.70;;;;;;4946978;28;20642;-81
2023/12/25 06:50:17;;;;;;;0.60;0.60;;;9.80;87.60;;;;;;4943756;28;20285;-81
2023/12/25 06:52:48;;;;;;;0.73;0.73;;;9.80;87.50;;;;;;4942417;28;20296;-83
2023/12/25 06:55:16;;;;;;;0.73;0.73;;;9.90;87.50;;;;;;4945337;28;20280;-83
2023/12/25 06:57:45;;;;;;;1.43;1.33;;;9.90;87.30;;;;;;4953866;28;20261;-83
2023/12/25 07:00:14;;;;;;;6.60;2.17;;;10.00;87.30;;;;;;4945445;28;20238;-80
2023/12/25 07:02:43;;;;;;;6.67;1.87;;;10.00;87.20;;;;;;4945482;28;20208;-84
2023/12/25 07:05:13;;;;;;;2.40;1.10;;;10.10;87.20;;;;;;4950178;28;20655;-82
2023/12/25 07:07:47;;;;;;;2.27;1.37;;;10.10;87.10;;;;;;4954860;28;20261;-85
2023/12/25 07:10:16;;;;;;;1.60;0.87;;;10.10;87.00;;;;;;4947027;28;20190;-81
2023/12/25 07:12:45;;;;;;;0.60;0.60;;;10.20;87.00;;;;;;4949519;28;20230;-83
2023/12/25 07:15:13;;;;;;;4.90;1.73;;;10.30;87.00;;;;;;4948964;28;20206;-85
2023/12/25 07:17:42;;;;;;;4.83;2.00;;;10.30;86.60;;;;;;4950743;28;20710;-86
2023/12/25 07:20:11;;;;;;;1.13;0.73;;;10.40;86.60;;;;;;4957902;28;20222;-90
2023/12/25 07:22:40;;;;;;;2.63;1.17;;;10.40;86.60;;;;;;4957872;28;20301;-87
2023/12/25 07:25:10;;;;;;;0.60;0.60;;;10.50;86.50;;;;;;4954937;28;20572;-88
2023/12/25 07:27:40;;;;;;;1.13;1.03;;;10.50;86.40;;;;;;4961147;28;20293;-84
2023/12/25 07:30:09;;;;;;;3.57;1.90;;;10.60;86.40;;;;;;4950219;28;20221;-85
2023/12/25 07:32:38;;;;;;;0.50;0.50;;;10.70;86.30;;;;;;4948536;28;20309;-86
2023/12/25 07:35:07;;;;;;;1.23;1.13;;;10.70;86.30;;;;;;4954310;28;20207;-87
2023/12/25 07:37:36;;;;;;;0.90;0.90;;;10.80;86.00;;;;;;4949079;28;20213;-86
2023/12/25 07:40:05;;;;;;;1.37;1.27;;;10.90;85.90;;;;;;4951274;28;20210;-87
2023/12/25 07:42:35;;;;;;;0.40;0.40;;;11.00;85.50;;;;;;4955120;28;20805;-88
2023/12/25 07:45:04;;;;;;;1.90;0.80;;;11.10;85.00;;;;;;4956018;28;20243;-86
2023/12/25 07:47:33;;;;;;;4.83;0.97;;;11.20;84.40;;;;;;4953037;28;20678;-86
2023/12/25 07:50:03;;;;;;;0.40;0.40;;;11.30;84.40;;;;;;4954445;28;20642;-83
2023/12/25 07:52:31;;;;;;;2.33;1.30;;;11.30;83.90;;;;;;4951540;28;20237;-83
2023/12/25 07:55:00;;;;;;;1.27;1.07;;;11.30;83.90;;;;;;4952433;28;20261;-83
2023/12/25 07:57:28;;;;;;;0.60;0.60;;;11.40;83.60;;;;;;4952013;28;20248;-82
2023/12/25 07:59:58;;;;;;;0.97;0.87;;;11.40;83.60;;;;;;4956631;28;20622;-83
2023/12/25 08:02:29;;;;;;;1.47;0.80;;;11.50;83.40;;;;;;4949095;28;20558;-84
2023/12/25 08:04:58;;;;;;;2.10;0.87;;;11.60;83.40;;;;;;4951240;28;20206;-82
2023/12/25 08:07:27;;;;;;;0.77;0.77;;;11.70;83.00;;;;;;4955253;28;20670;-82
2023/12/25 08:09:55;;;;;;;0.70;0.70;;;11.80;82.80;;;;;;4955309;28;20293;-83
2023/12/25 08:12:24;;;;;;;2.60;0.97;;;11.80;82.60;;;;;;4953190;28;20281;-86
2023/12/25 08:14:53;;;;;;;0.90;0.90;;;11.90;83.50;;;;;;4952439;28;20261;-85
2023/12/25 08:17:23;;;;;;;1.20;1.10;;;12.00;82.30;;;;;;4951563;28;21685;-83
2023/12/25 08:19:52;;;;;;;1.70;1.37;;;12.00;82.40;;;;;;4955122;28;20265;-82
2023/12/25 08:22:20;;;;;;;0.40;0.40;;;12.10;82.50;;;;;;4955063;28;20224;-81
2023/12/25 08:24:52;;;;;;;0.70;0.70;;;12.20;82.50;;;;;;4953658;28;20206;-81
2023/12/25 08:27:20;;;;;;;4.63;1.53;;;12.30;81.80;;;;;;4949666;28;20202;-81
2023/12/25 08:29:49;;;;;;;0.83;0.70;;;12.40;81.90;;;;;;4948378;28;20198;-82
2023/12/25 08:32:18;;;;;;;1.80;1.47;;;12.50;81.80;;;;;;4950886;28;20214;-83
2023/12/25 08:34:48;;;;;;;2.30;0.93;;;12.50;81.40;;;;;;4948648;28;20313;-83
2023/12/25 08:37:17;;;;;;;0.47;0.47;;;12.60;81.50;;;;;;4961147;28;20204;-82
2023/12/25 08:39:46;;;;;;;2.97;0.93;;;12.60;81.40;;;;;;4955500;28;20648;-82
2023/12/25 08:42:15;;;;;;;3.07;0.73;;;12.80;81.70;;;;;;4952478;28;20210;-84
2023/12/25 08:44:47;;;;;;;2.30;1.57;;;12.80;81.00;;;;;;4956562;28;20210;-83
2023/12/25 08:47:16;;;;;;;0.87;0.83;;;12.90;80.80;;;;;;4953933;28;20261;-81
2023/12/25 08:49:46;;;;;;;3.60;1.23;;;13.00;80.60;;;;;;4957635;28;20202;-83
2023/12/25 08:52:18;;;;;;;2.17;1.17;;;13.10;80.50;;;;;;4951392;28;20198;-81
2023/12/25 08:54:47;;;;;;;3.10;1.00;;;13.20;79.40;;;;;;4953638;28;20237;-84
2023/12/25 08:57:16;;;;;;;0.67;0.50;;;13.20;78.70;;;;;;4956898;28;20230;-82
2023/12/25 08:59:49;;;;;;;0.87;0.87;;;13.40;78.50;;;;;;4952090;28;20228;-84
2023/12/25 09:02:19;;;;;;;2.20;1.60;;;13.40;77.90;;;;;;4954114;28;20257;-82
2023/12/25 09:04:49;;;;;;;5.67;1.57;;;13.50;77.50;;;;;;4953401;28;20714;-84
2023/12/25 09:07:20;;;;;;;0.57;0.57;;;13.60;77.50;;;;;;4955453;28;20198;-83
2023/12/25 09:09:48;;;;;;;0.43;0.40;;;13.70;77.90;;;;;;4957903;28;20658;-84
2023/12/25 09:12:27;;;;;;;;;;;;;;;;;;;;;
2023/12/25 09:14:56;;;;;;;2.57;1.43;;;13.80;77.00;;;;;;4950064;28;20221;-83
2023/12/25 09:17:24;;;;;;;2.57;1.60;;;13.90;76.60;;;;;;4955340;28;20258;-82
2023/12/25 09:19:53;;;;;;;2.10;1.30;;;14.00;76.90;;;;;;4950628;28;20549;-85
2023/12/25 09:22:27;;;;;;;0.47;0.47;;;14.10;76.30;;;;;;4949949;28;20295;-81
2023/12/25 09:24:55;;;;;;;0.90;0.90;;;14.10;75.60;;;;;;4951922;28;20229;-82
2023/12/25 09:27:24;;;;;;;1.03;1.03;;;14.20;75.20;;;;;;4951780;28;20659;-80
2023/12/25 09:29:53;;;;;;;0.50;0.50;;;14.30;75.00;;;;;;4951820;28;20849;-84
2023/12/25 09:32:29;;;;;;;1.03;0.90;;;14.40;74.50;;;;;;4954426;28;20252;-81
2023/12/25 09:34:58;;;;;;;2.20;0.80;;;14.40;74.40;;;;;;4950266;28;20772;-81
2023/12/25 09:37:28;;;;;;;0.63;0.60;;;14.50;74.70;;;;;;4949002;28;20289;-84
2023/12/25 09:39:57;;;;;;;1.10;1.10;;;14.60;74.30;;;;;;4947058;28;20198;-80
2023/12/25 09:42:25;;;;;;;1.37;1.00;;;14.60;74.30;;;;;;4948044;28;20301;-86
2023/12/25 09:44:55;;;;;;;2.33;1.77;;;14.80;74.40;;;;;;4947077;28;20285;-81
2023/12/25 09:47:30;;;;;;;1.47;0.87;;;14.80;73.70;;;;;;4948750;28;20206;-81
2023/12/25 09:49:59;;;;;;;0.60;0.60;;;14.90;73.40;;;;;;4944473;28;20288;-81
2023/12/25 09:52:30;;;;;;;1.27;1.17;;;14.90;73.40;;;;;;4947908;28;20206;-82
2023/12/25 09:54:59;;;;;;;6.90;1.17;;;15.00;72.50;;;;;;4945435;28;20222;-82
2023/12/25 09:57:29;;;;;;;1.50;1.33;;;15.10;72.60;;;;;;4948598;28;20218;-82
2023/12/25 10:00:04;;;;;;;2.37;0.93;;;15.10;72.40;;;;;;4952734;28;20198;-82
2023/12/25 10:02:38;;;;;;;2.20;1.47;;;15.20;71.20;;;;;;4950263;28;20213;-82
2023/12/25 10:05:08;;;;;;;1.33;0.80;;;15.30;71.70;;;;;;4947294;28;20581;-83
2023/12/25 10:07:37;;;;;;;0.70;0.70;;;15.30;71.00;;;;;;4957657;28;20198;-88
2023/12/25 10:10:09;;;;;;;0.60;0.60;;;15.40;71.20;;;;;;4950823;28;20579;-85
2023/12/25 10:12:43;;;;;;;3.60;1.07;;;15.50;71.60;;;;;;4953299;28;20198;-84
2023/12/25 10:15:13;;;;;;;0.80;0.67;;;15.50;71.10;;;;;;4957106;28;20229;-86
2023/12/25 10:17:42;;;;;;;1.07;0.87;;;15.60;71.30;;;;;;4953289;28;20203;-86
2023/12/25 10:20:21;;;;;;;2.05;1.25;;;15.70;71.00;;;;;;4957315;28;20447;-82
2023/12/25 10:22:51;;;;;;;1.27;1.10;;;15.80;70.90;;;;;;4950421;28;20706;-82
2023/12/25 10:25:25;;;;;;;3.17;1.00;;;15.80;70.70;;;;;;4949282;28;20644;-82
2023/12/25 10:27:54;;;;;;;0.73;0.60;;;15.90;70.80;;;;;;4953460;28;20221;-86
2023/12/25 10:30:25;;;;;;;0.43;0.43;;;15.90;70.10;;;;;;4949596;28;20698;-83
2023/12/25 10:33:10;;;;;;;17.10;1.93;;;16.00;70.50;;;;;;4946999;28;20228;-82
2023/12/25 10:35:40;;;;;;;1.93;0.77;;;16.20;70.50;;;;;;4947202;28;20752;-81
2023/12/25 10:38:24;;;;;;;2.30;0.70;;;16.10;69.50;;;;;;4947523;28;20211;-81
2023/12/25 10:40:53;;;;;;;0.80;0.70;;;16.20;69.10;;;;;;4954322;28;20198;-81
2023/12/25 10:43:23;;;;;;;0.40;0.40;;;16.20;68.90;;;;;;4956932;28;20210;-81
2023/12/25 10:45:54;;;;;;;3.60;1.10;;;16.30;69.40;;;;;;4952570;28;20210;-82
2023/12/25 10:48:25;;;;;;;0.50;0.50;;;16.30;69.00;;;;;;4957569;28;20603;-80
2023/12/25 10:50:56;;;;;;;3.17;0.93;;;16.30;69.50;;;;;;4952409;28;21017;-83
2023/12/25 10:53:27;;;;;;;2.73;1.40;;;16.40;69.40;;;;;;4953269;28;20209;-82
2023/12/25 10:55:56;;;;;;;0.70;0.70;;;16.50;68.90;;;;;;4952792;28;20218;-80
2023/12/25 10:58:28;;;;;;;0.50;0.50;;;16.50;68.10;;;;;;4960351;28;20701;-82
2023/12/25 11:00:59;;;;;;;6.53;1.07;;;16.60;67.70;;;;;;4950540;28;20749;-80
2023/12/25 11:03:29;;;;;;;1.13;0.97;;;16.70;67.70;;;;;;4951250;28;20235;-79
2023/12/25 11:05:59;;;;;;;1.27;0.70;;;16.70;67.40;;;;;;4952964;28;20202;-82
2023/12/25 11:08:29;;;;;;;1.53;0.97;;;16.80;66.70;;;;;;4955000;28;20198;-79
2023/12/25 11:11:06;;;;;;;1.17;0.40;;;16.90;66.20;;;;;;4954492;28;20210;-80
2023/12/25 11:13:35;;;;;;;1.53;1.10;;;16.90;65.50;;;;;;4956750;28;20202;-81
2023/12/25 11:16:06;;;;;;;1.53;0.80;;;17.00;65.20;;;;;;4953469;28;20233;-82
2023/12/25 11:18:37;;;;;;;1.40;0.90;;;17.10;64.70;;;;;;4956681;28;20289;-82
2023/12/25 11:21:07;;;;;;;0.57;0.57;;;17.10;64.70;;;;;;4956077;28;20650;-81
2023/12/25 11:23:40;;;;;;;2.67;1.50;;;17.20;64.70;;;;;;4958622;28;20213;-79
2023/12/25 11:26:16;;;;;;;1.03;0.60;;;17.30;64.20;;;;;;4963645;28;20202;-86
2023/12/25 11:28:57;;;;;;;0.63;0.57;;;17.30;64.50;;;;;;4955150;28;20216;-85
2023/12/25 11:31:27;;;;;;;2.13;1.03;;;17.40;64.70;;;;;;4958827;28;20289;-83
2023/12/25 11:34:20;;;;;;;1.17;0.70;;;17.40;63.30;;;;;;4955420;28;20206;-83
2023/12/25 11:36:54;;;;;;;1.03;0.60;;;17.50;62.60;;;;;;4952397;28;20222;-81
2023/12/25 11:39:26;;;;;;;0.50;0.50;;;17.40;62.60;;;;;;4955385;28;20258;-81
2023/12/25 11:41:54;;;;;;;1.33;1.23;;;17.50;62.80;;;;;;4957957;28;20203;-85
2023/12/25 11:44:32;;;;;;;1.97;0.87;;;17.40;63.00;;;;;;4950355;28;20734;-83
2023/12/25 11:47:02;;;;;;;0.50;0.50;;;17.50;63.00;;;;;;4952608;28;20217;-81
2023/12/25 11:49:34;;;;;;;3.37;1.23;;;17.50;62.60;;;;;;4950831;28;20250;-81
2023/12/25 11:52:03;;;;;;;0.87;0.87;;;17.50;63.10;;;;;;4959189;28;20669;-81
2023/12/25 11:54:37;;;;;;;0.90;0.90;;;17.50;62.40;;;;;;4954002;28;20769;-81
2023/12/25 11:57:17;;;;;;;0.60;0.60;;;17.50;62.50;;;;;;4952443;28;20324;-80
2023/12/25 11:59:46;;;;;;;2.63;1.27;;;17.50;62.60;;;;;;4952921;28;20406;-81
2023/12/25 12:02:17;;;;;;;1.37;1.23;;;17.50;62.70;;;;;;4955024;28;20233;-80
2023/12/25 12:04:46;;;;;;;1.63;1.17;;;17.60;62.90;;;;;;4947596;28;20237;-80
2023/12/25 12:07:16;;;;;;;3.37;1.37;;;17.60;62.50;;;;;;4954223;28;20207;-80
2023/12/25 12:09:47;;;;;;;1.60;1.23;;;17.60;62.50;;;;;;4958068;28;20212;-82
2023/12/25 12:12:15;;;;;;;3.07;0.80;;;17.70;62.90;;;;;;4955103;28;20209;-79
2023/12/25 12:14:44;;;;;;;6.73;1.53;;;17.70;62.70;;;;;;4950722;28;20214;-81
2023/12/25 12:17:15;;;;;;;3.40;1.77;;;17.80;62.90;;;;;;4950954;28;20231;-80
2023/12/25 12:19:45;;;;;;;0.47;0.47;;;17.80;62.50;;;;;;4955004;28;20705;-79
2023/12/25 12:22:16;;;;;;;0.93;0.87;;;17.90;62.30;;;;;;4954385;28;20206;-81
2023/12/25 12:24:46;;;;;;;1.03;0.60;;;17.90;62.00;;;;;;4953749;28;20210;-83
2023/12/25 12:27:14;;;;;;;0.63;0.40;;;17.90;61.70;;;;;;4954452;28;20198;-80
2023/12/25 12:29:43;;;;;;;0.50;0.50;;;18.00;62.00;;;;;;4958369;28;20210;-80
2023/12/25 12:32:12;;;;;;;0.63;0.63;;;18.10;62.10;;;;;;4950536;28;20738;-81
2023/12/25 12:34:41;;;;;;;4.40;0.70;;;18.10;61.40;;;;;;4957302;28;20202;-80
2023/12/25 12:37:11;;;;;;;0.73;0.67;;;18.20;61.60;;;;;;4954649;28;20280;-81
2023/12/25 12:39:39;;;;;;;1.90;0.97;;;18.20;61.30;;;;;;4951322;28;20268;-81
2023/12/25 12:42:12;;;;;;;2.87;0.83;;;18.30;61.20;;;;;;4952605;28;20670;-83
2023/12/25 12:44:41;;;;;;;0.30;0.30;;;18.30;60.80;;;;;;4948933;28;20202;-83
2023/12/25 12:47:10;;;;;;;1.03;0.83;;;18.40;60.60;;;;;;4947964;28;20206;-81
2023/12/25 12:49:38;;;;;;;4.10;0.67;;;18.40;61.10;;;;;;4954307;28;20207;-83
2023/12/25 12:52:07;;;;;;;0.60;0.60;;;18.50;61.00;;;;;;4953902;28;20610;-83
2023/12/25 12:54:36;;;;;;;10.00;1.70;;;18.50;61.20;;;;;;4954528;28;20622;-84
2023/12/25 12:57:05;;;;;;;0.37;0.37;;;18.60;62.40;;;;;;4958349;28;20260;-83
2023/12/25 12:59:35;;;;;;;0.50;0.47;;;18.60;60.70;;;;;;4949007;28;20225;-83
2023/12/25 13:02:04;;;;;;;5.40;2.50;;;18.60;60.90;;;;;;4953318;28;20210;-82
2023/12/25 13:04:33;;;;;;;0.30;0.30;;;18.70;61.20;;;;;;4956908;28;20195;-82
2023/12/25 13:07:01;;;;;;;0.85;0.52;;;18.80;60.80;;;;;;4955487;28;20214;-84